sensor_id;sensor_type;location;lat;lon;timestamp;pressure;altitude;pressure_sealevel;temperature;humidity
49055;BME280;35405;52.344;14.530;2022-12-18T06:32:48;102664.28;;;-5.64;100.00
49055;BME280;35405;52.344;14.530;2022-12-18T06:35:14;102668.44;;;-5.71;100.00
49055;BME280;35405;52.344;14.530;2022-12-18T06:37:39;102672.66;;;-5.68;100.00
49055;BME280;35405;52.344;14.530;2022-12-18T06:40:05;102670.56;;;-5.65;100.00
49055;BME280;35405;52.344;14.530;2022-12-18T06:42:30;102682.53;;;-5.70;100.00
49055;BME280;35405;52.344;14.530;2022-12-18T06:44:55;102683.63;;;-5.73;100.00
49055;BME280;35405;52.344;14.530;2022-12-18T06:47:20;102683.53;;;-5.71;100.00
49055;BME280;35405;52.344;14.530;2022-12-18T06:49:46;102686.00;;;-5.70;100.00
49055;BME280;35405;52.344;14.530;2022-12-18T06:52:11;102689.13;;;-5.55;100.00
49055;BME280;35405;52.344;14.530;2022-12-18T06:54:36;102695.50;;;-5.67;100.00
49055;BME280;35405;52.344;14.530;2022-12-18T06:57:01;102702.34;;;-5.75;100.00
49055;BME280;35405;52.344;14.530;2022-12-18T06:59:27;102694.53;;;-5.66;100.00
49055;BME280;35405;52.344;14.530;2022-12-18T07:01:52;102710.03;;;-5.71;100.00
49055;BME280;35405;52.344;14.530;2022-12-18T07:04:17;102719.09;;;-5.64;100.00
49055;BME280;35405;52.344;14.530;2022-12-18T07:06:42;102713.25;;;-5.58;100.00
49055;BME280;35405;52.344;14.530;2022-12-18T07:09:07;102711.72;;;-5.61;100.00
49055;BME280;35405;52.344;14.530;2022-12-18T07:11:33;102710.88;;;-5.61;100.00
49055;BME280;35405;52.344;14.530;2022-12-18T07:13:58;102720.66;;;-5.52;100.00
49055;BME280;35405;52.344;14.530;2022-12-18T07:16:23;102732.81;;;-5.49;100.00
49055;BME280;35405;52.344;14.530;2022-12-18T07:18:48;102738.69;;;-5.46;100.00
49055;BME280;35405;52.344;14.530;2022-12-18T07:21:15;102728.75;;;-5.54;100.00
49055;BME280;35405;52.344;14.530;2022-12-18T07:23:40;102736.00;;;-5.56;100.00
49055;BME280;35405;52.344;14.530;2022-12-18T07:26:12;102728.97;;;-5.66;100.00
49055;BME280;35405;52.344;14.530;2022-12-18T07:28:38;102719.22;;;-5.66;100.00
49055;BME280;35405;52.344;14.530;2022-12-18T07:31:07;102713.25;;;-5.58;100.00
49055;BME280;35405;52.344;14.530;2022-12-18T07:33:33;102713.09;;;-5.57;100.00
49055;BME280;35405;52.344;14.530;2022-12-18T07:35:59;102720.22;;;-5.57;100.00
49055;BME280;35405;52.344;14.530;2022-12-18T07:38:24;102721.31;;;-5.60;100.00
49055;BME280;35405;52.344;14.530;2022-12-18T07:40:49;102715.50;;;-5.54;100.00
49055;BME280;35405;52.344;14.530;2022-12-18T07:43:14;102723.22;;;-5.41;100.00
49055;BME280;35405;52.344;14.530;2022-12-18T07:45:40;102721.53;;;-5.42;100.00
49055;BME280;35405;52.344;14.530;2022-12-18T07:48:05;102720.97;;;-5.36;100.00
49055;BME280;35405;52.344;14.530;2022-12-18T07:50:30;102732.28;;;-5.34;100.00
49055;BME280;35405;52.344;14.530;2022-12-18T07:52:55;102734.94;;;-5.34;100.00
49055;BME280;35405;52.344;14.530;2022-12-18T07:55:21;102737.47;;;-5.32;100.00
49055;BME280;35405;52.344;14.530;2022-12-18T07:57:46;102738.03;;;-5.38;100.00
49055;BME280;35405;52.344;14.530;2022-12-18T08:00:11;102733.28;;;-5.35;100.00
49055;BME280;35405;52.344;14.530;2022-12-18T08:02:40;102745.84;;;-5.27;100.00
49055;BME280;35405;52.344;14.530;2022-12-18T08:05:05;102730.66;;;-5.25;100.00
49055;BME280;35405;52.344;14.530;2022-12-18T08:07:30;102731.31;;;-5.33;100.00
49055;BME280;35405;52.344;14.530;2022-12-18T08:09:55;102723.78;;;-5.28;100.00
49055;BME280;35405;52.344;14.530;2022-12-18T08:12:20;102733.81;;;-5.41;100.00
49055;BME280;35405;52.344;14.530;2022-12-18T08:14:46;102728.53;;;-5.41;100.00
49055;BME280;35405;52.344;14.530;2022-12-18T08:17:11;102727.53;;;-5.40;100.00
49055;BME280;35405;52.344;14.530;2022-12-18T08:19:36;102717.38;;;-5.35;100.00
49055;BME280;35405;52.344;14.530;2022-12-18T08:22:01;102713.16;;;-5.37;100.00
49055;BME280;35405;52.344;14.530;2022-12-18T08:24:27;102714.56;;;-5.43;100.00
49055;BME280;35405;52.344;14.530;2022-12-18T08:26:52;102715.13;;;-5.39;100.00
49055;BME280;35405;52.344;14.530;2022-12-18T08:29:17;102717.66;;;-5.38;100.00
49055;BME280;35405;52.344;14.530;2022-12-18T08:31:42;102721.56;;;-5.32;100.00
49055;BME280;35405;52.344;14.530;2022-12-18T08:34:08;102716.00;;;-5.29;100.00
49055;BME280;35405;52.344;14.530;2022-12-18T08:36:33;102709.69;;;-5.38;100.00
49055;BME280;35405;52.344;14.530;2022-12-18T08:38:58;102700.91;;;-5.38;100.00
49055;BME280;35405;52.344;14.530;2022-12-18T08:41:23;102706.06;;;-5.37;100.00
49055;BME280;35405;52.344;14.530;2022-12-18T08:43:48;102710.38;;;-5.36;100.00
49055;BME280;35405;52.344;14.530;2022-12-18T08:46:34;102704.13;;;-5.25;100.00
49055;BME280;35405;52.344;14.530;2022-12-18T08:48:59;102709.88;;;-5.20;100.00
49055;BME280;35405;52.344;14.530;2022-12-18T08:51:25;102719.09;;;-5.14;100.00
49055;BME280;35405;52.344;14.530;2022-12-18T08:53:50;102743.09;;;-5.16;100.00
49055;BME280;35405;52.344;14.530;2022-12-18T08:56:15;102738.88;;;-5.18;100.00
49055;BME280;35405;52.344;14.530;2022-12-18T08:58:41;102741.09;;;-5.33;100.00
49055;BME280;35405;52.344;14.530;2022-12-18T09:01:07;102744.19;;;-5.18;100.00
49055;BME280;35405;52.344;14.530;2022-12-18T09:03:36;102732.19;;;-5.13;100.00
49055;BME280;35405;52.344;14.530;2022-12-18T09:06:02;102732.84;;;-5.30;100.00
49055;BME280;35405;52.344;14.530;2022-12-18T09:08:27;102739.03;;;-5.20;100.00
49055;BME280;35405;52.344;14.530;2022-12-18T09:10:52;102735.41;;;-5.09;100.00
49055;BME280;35405;52.344;14.530;2022-12-18T09:13:18;102736.94;;;-5.07;100.00
49055;BME280;35405;52.344;14.530;2022-12-18T09:15:46;102746.72;;;-5.17;100.00
49055;BME280;35405;52.344;14.530;2022-12-18T09:18:12;102746.84;;;-5.18;100.00
49055;BME280;35405;52.344;14.530;2022-12-18T09:20:38;102745.16;;;-5.29;100.00
49055;BME280;35405;52.344;14.530;2022-12-18T09:23:03;102737.47;;;-5.32;100.00
49055;BME280;35405;52.344;14.530;2022-12-18T09:25:29;102735.41;;;-5.19;100.00
49055;BME280;35405;52.344;14.530;2022-12-18T09:28:06;102738.34;;;-5.12;100.00
49055;BME280;35405;52.344;14.530;2022-12-18T09:30:32;102749.09;;;-5.14;100.00
49055;BME280;35405;52.344;14.530;2022-12-18T09:32:59;102750.22;;;-5.07;100.00
49055;BME280;35405;52.344;14.530;2022-12-18T09:35:24;102742.41;;;-4.98;100.00
49055;BME280;35405;52.344;14.530;2022-12-18T09:37:49;102756.25;;;-4.95;100.00
49055;BME280;35405;52.344;14.530;2022-12-18T09:40:19;102761.00;;;-4.98;100.00
49055;BME280;35405;52.344;14.530;2022-12-18T09:42:45;102760.31;;;-4.81;100.00
49055;BME280;35405;52.344;14.530;2022-12-18T09:45:13;102761.00;;;-4.89;100.00
49055;BME280;35405;52.344;14.530;2022-12-18T09:47:39;102758.34;;;-4.89;100.00
49055;BME280;35405;52.344;14.530;2022-12-18T09:50:13;102754.56;;;-4.96;100.00
49055;BME280;35405;52.344;14.530;2022-12-18T09:52:41;102775.81;;;-4.96;100.00
49055;BME280;35405;52.344;14.530;2022-12-18T09:55:28;102772.31;;;-4.96;100.00
49055;BME280;35405;52.344;14.530;2022-12-18T09:57:56;102773.28;;;-4.97;100.00
49055;BME280;35405;52.344;14.530;2022-12-18T10:00:23;102768.97;;;-4.89;100.00
49055;BME280;35405;52.344;14.530;2022-12-18T10:02:50;102760.88;;;-4.87;100.00
49055;BME280;35405;52.344;14.530;2022-12-18T10:05:17;102764.34;;;-4.96;100.00
49055;BME280;35405;52.344;14.530;2022-12-18T10:13:18;102772.72;;;-4.82;100.00
49055;BME280;35405;52.344;14.530;2022-12-18T10:16:24;102764.91;;;-4.73;100.00
49055;BME280;35405;52.344;14.530;2022-12-18T10:21:01;102760.16;;;-4.70;100.00
49055;BME280;35405;52.344;14.530;2022-12-18T10:26:09;102760.72;;;-4.76;100.00
49055;BME280;35405;52.344;14.530;2022-12-18T10:28:36;102759.75;;;-4.75;100.00
49055;BME280;35405;52.344;14.530;2022-12-18T10:31:01;102760.72;;;-4.86;100.00
49055;BME280;35405;52.344;14.530;2022-12-18T10:33:30;102760.72;;;-4.95;100.00
49055;BME280;35405;52.344;14.530;2022-12-18T10:35:56;102753.59;;;-5.04;100.00
49055;BME280;35405;52.344;14.530;2022-12-18T10:38:23;102745.47;;;-5.03;100.00
49055;BME280;35405;52.344;14.530;2022-12-18T10:40:56;102746.56;;;-5.15;100.00
49055;BME280;35405;52.344;14.530;2022-12-18T10:46:12;102754.53;;;-5.06;100.00
49055;BME280;35405;52.344;14.530;2022-12-18T10:48:40;102738.34;;;-5.02;100.00
49055;BME280;35405;52.344;14.530;2022-12-18T10:56:27;102740.31;;;-5.04;100.00
49055;BME280;35405;52.344;14.530;2022-12-18T11:01:54;102735.41;;;-4.99;100.00
49055;BME280;35405;52.344;14.530;2022-12-18T11:04:26;102741.88;;;-4.92;100.00
49055;BME280;35405;52.344;14.530;2022-12-18T11:07:13;102740.75;;;-4.90;100.00
49055;BME280;35405;52.344;14.530;2022-12-18T11:09:38;102723.84;;;-5.08;100.00
49055;BME280;35405;52.344;14.530;2022-12-18T11:12:17;102726.06;;;-5.03;100.00
49055;BME280;35405;52.344;14.530;2022-12-18T11:14:47;102723.13;;;-5.10;100.00
49055;BME280;35405;52.344;14.530;2022-12-18T11:17:31;102717.28;;;-5.14;100.00
49055;BME280;35405;52.344;14.530;2022-12-18T11:20:01;102709.72;;;-5.09;100.00
49055;BME280;35405;52.344;14.530;2022-12-18T11:22:28;102705.41;;;-4.90;100.00
49055;BME280;35405;52.344;14.530;2022-12-18T11:27:22;102693.81;;;-4.79;100.00
49055;BME280;35405;52.344;14.530;2022-12-18T11:29:47;102698.56;;;-4.83;100.00
49055;BME280;35405;52.344;14.530;2022-12-18T11:34:39;102691.44;;;-4.92;100.00
49055;BME280;35405;52.344;14.530;2022-12-18T11:37:07;102682.66;;;-4.93;100.00
49055;BME280;35405;52.344;14.530;2022-12-18T11:39:38;102674.13;;;-4.87;100.00
49055;BME280;35405;52.344;14.530;2022-12-18T11:42:24;102672.03;;;-4.83;100.00
49055;BME280;35405;52.344;14.530;2022-12-18T11:53:01;102674.56;;;-5.11;100.00
49055;BME280;35405;52.344;14.530;2022-12-18T12:07:00;102678.44;;;-5.15;100.00
49055;BME280;35405;52.344;14.530;2022-12-18T12:25:18;102690.88;;;-4.76;100.00
49055;BME280;35405;52.344;14.530;2022-12-18T12:41:54;102704.28;;;-4.97;100.00
49055;BME280;35405;52.344;14.530;2022-12-18T12:44:39;102711.69;;;-4.91;100.00
49055;BME280;35405;52.344;14.530;2022-12-18T12:47:11;102713.50;;;-4.82;100.00
49055;BME280;35405;52.344;14.530;2022-12-18T12:49:38;102718.25;;;-4.86;100.00
49055;BME280;35405;52.344;14.530;2022-12-18T12:52:05;102726.38;;;-4.87;100.00
49055;BME280;35405;52.344;14.530;2022-12-18T12:54:32;102719.91;;;-4.85;100.00
49055;BME280;35405;52.344;14.530;2022-12-18T12:59:26;102727.88;;;-4.94;100.00
49055;BME280;35405;52.344;14.530;2022-12-18T13:01:59;102724.13;;;-4.82;100.00
49055;BME280;35405;52.344;14.530;2022-12-18T13:07:00;102725.81;;;-4.71;100.00
49055;BME280;35405;52.344;14.530;2022-12-18T13:09:31;102731.38;;;-4.65;100.00
49055;BME280;35405;52.344;14.530;2022-12-18T13:12:01;102730.13;;;-4.61;100.00
49055;BME280;35405;52.344;14.530;2022-12-18T13:14:45;102733.06;;;-4.64;100.00
49055;BME280;35405;52.344;14.530;2022-12-18T13:17:43;102719.78;;;-4.64;100.00
49055;BME280;35405;52.344;14.530;2022-12-18T13:22:31;102714.34;;;-4.62;100.00
49055;BME280;35405;52.344;14.530;2022-12-18T13:24:58;102710.31;;;-4.66;100.00
49055;BME280;35405;52.344;14.530;2022-12-18T13:33:17;102702.31;;;-4.76;100.00
49055;BME280;35405;52.344;14.530;2022-12-18T13:35:37;102694.91;;;-4.72;100.00
49055;BME280;35405;52.344;14.530;2022-12-18T13:38:18;102698.13;;;-4.78;100.00
49055;BME280;35405;52.344;14.530;2022-12-18T13:45:45;102692.84;;;-4.98;100.00
49055;BME280;35405;52.344;14.530;2022-12-18T13:48:22;102690.59;;;-5.02;100.00
49055;BME280;35405;52.344;14.530;2022-12-18T13:53:47;102718.25;;;-4.95;100.00
49055;BME280;35405;52.344;14.530;2022-12-18T13:56:17;102716.44;;;-5.04;100.00
49055;BME280;35405;52.344;14.530;2022-12-18T13:58:42;102711.13;;;-5.04;100.00
49055;BME280;35405;52.344;14.530;2022-12-18T14:01:23;102725.22;;;-5.04;100.00
49055;BME280;35405;52.344;14.530;2022-12-18T14:03:48;102724.53;;;-5.06;100.00
49055;BME280;35405;52.344;14.530;2022-12-18T14:06:17;102726.06;;;-5.13;100.00
49055;BME280;35405;52.344;14.530;2022-12-18T14:08:42;102731.91;;;-5.10;100.00
49055;BME280;35405;52.344;14.530;2022-12-18T14:11:16;102724.69;;;-5.08;100.00
49055;BME280;35405;52.344;14.530;2022-12-18T14:13:43;102732.63;;;-5.08;100.00
49055;BME280;35405;52.344;14.530;2022-12-18T14:16:11;102720.47;;;-5.00;100.00
49055;BME280;35405;52.344;14.530;2022-12-18T14:18:56;102717.13;;;-5.02;100.00
49055;BME280;35405;52.344;14.530;2022-12-18T14:21:23;102712.78;;;-5.03;100.00
49055;BME280;35405;52.344;14.530;2022-12-18T14:24:02;102705.13;;;-5.07;100.00
49055;BME280;35405;52.344;14.530;2022-12-18T14:26:29;102689.75;;;-5.03;100.00
49055;BME280;35405;52.344;14.530;2022-12-18T14:28:57;102696.75;;;-5.02;100.00
49055;BME280;35405;52.344;14.530;2022-12-18T14:31:27;102698.00;;;-5.06;100.00
49055;BME280;35405;52.344;14.530;2022-12-18T14:33:53;102686.53;;;-5.07;100.00
49055;BME280;35405;52.344;14.530;2022-12-18T14:36:20;102689.47;;;-5.19;100.00
49055;BME280;35405;52.344;14.530;2022-12-18T14:38:50;102685.00;;;-5.19;100.00
49055;BME280;35405;52.344;14.530;2022-12-18T14:41:16;102683.63;;;-5.13;100.00
49055;BME280;35405;52.344;14.530;2022-12-18T14:43:43;102678.03;;;-5.20;100.00
49055;BME280;35405;52.344;14.530;2022-12-18T14:48:49;102663.63;;;-5.27;100.00
49055;BME280;35405;52.344;14.530;2022-12-18T14:53:40;102661.97;;;-5.28;100.00
49055;BME280;35405;52.344;14.530;2022-12-18T14:56:26;102662.13;;;-5.20;100.00
49055;BME280;35405;52.344;14.530;2022-12-18T14:59:04;102654.28;;;-5.31;100.00
49055;BME280;35405;52.344;14.530;2022-12-18T15:01:35;102654.84;;;-5.37;100.00
49055;BME280;35405;52.344;14.530;2022-12-18T15:04:02;102659.16;;;-5.36;100.00
49055;BME280;35405;52.344;14.530;2022-12-18T15:06:30;102667.00;;;-5.35;100.00
49055;BME280;35405;52.344;14.530;2022-12-18T15:08:57;102656.50;;;-5.36;100.00
49055;BME280;35405;52.344;14.530;2022-12-18T15:13:50;102638.94;;;-5.37;100.00
49055;BME280;35405;52.344;14.530;2022-12-18T15:16:16;102637.53;;;-5.41;100.00
49055;BME280;35405;52.344;14.530;2022-12-18T15:18:41;102640.75;;;-5.38;100.00
49055;BME280;35405;52.344;14.530;2022-12-18T15:21:08;102634.34;;;-5.35;100.00
49055;BME280;35405;52.344;14.530;2022-12-18T15:23:50;102629.03;;;-5.35;100.00
49055;BME280;35405;52.344;14.530;2022-12-18T15:26:16;102627.50;;;-5.28;100.00
49055;BME280;35405;52.344;14.530;2022-12-18T15:33:40;102633.63;;;-5.47;100.00
49055;BME280;35405;52.344;14.530;2022-12-18T15:36:09;102633.31;;;-5.54;100.00
49055;BME280;35405;52.344;14.530;2022-12-18T15:38:35;102634.28;;;-5.55;100.00
49055;BME280;35405;52.344;14.530;2022-12-18T15:41:00;102631.38;;;-5.52;100.00
49055;BME280;35405;52.344;14.530;2022-12-18T15:43:26;102646.72;;;-5.45;100.00
49055;BME280;35405;52.344;14.530;2022-12-18T15:46:05;102660.25;;;-5.48;100.00
49055;BME280;35405;52.344;14.530;2022-12-18T15:48:31;102680.75;;;-5.51;100.00
49055;BME280;35405;52.344;14.530;2022-12-18T15:50:57;102677.53;;;-5.54;100.00
49055;BME280;35405;52.344;14.530;2022-12-18T15:53:23;102674.59;;;-5.61;100.00
49055;BME280;35405;52.344;14.530;2022-12-18T15:55:55;102672.66;;;-5.59;100.00
49055;BME280;35405;52.344;14.530;2022-12-18T15:58:39;102679.63;;;-5.58;100.00
49055;BME280;35405;52.344;14.530;2022-12-18T16:01:14;102682.56;;;-5.61;100.00
49055;BME280;35405;52.344;14.530;2022-12-18T16:03:45;102689.78;;;-5.63;100.00
49055;BME280;35405;52.344;14.530;2022-12-18T16:06:10;102690.22;;;-5.58;100.00
49055;BME280;35405;52.344;14.530;2022-12-18T16:08:35;102692.31;;;-5.61;100.00
49055;BME280;35405;52.344;14.530;2022-12-18T16:11:01;102684.28;;;-5.81;100.00
49055;BME280;35405;52.344;14.530;2022-12-18T16:13:26;102688.19;;;-5.94;100.00
49055;BME280;35405;52.344;14.530;2022-12-18T16:15:51;102681.78;;;-6.02;100.00
49055;BME280;35405;52.344;14.530;2022-12-18T16:18:16;102677.94;;;-6.09;100.00
49055;BME280;35405;52.344;14.530;2022-12-18T16:20:42;102679.72;;;-6.19;100.00
49055;BME280;35405;52.344;14.530;2022-12-18T16:23:07;102677.22;;;-6.41;100.00
49055;BME280;35405;52.344;14.530;2022-12-18T16:25:32;102666.00;;;-6.55;100.00
49055;BME280;35405;52.344;14.530;2022-12-18T16:27:58;102660.53;;;-6.63;100.00
49055;BME280;35405;52.344;14.530;2022-12-18T16:30:24;102666.34;;;-6.69;100.00
49055;BME280;35405;52.344;14.530;2022-12-18T16:32:52;102659.88;;;-6.76;100.00
49055;BME280;35405;52.344;14.530;2022-12-18T16:35:17;102658.84;;;-6.85;100.00
49055;BME280;35405;52.344;14.530;2022-12-18T16:37:42;102654.41;;;-6.84;100.00
49055;BME280;35405;52.344;14.530;2022-12-18T16:40:09;102651.44;;;-6.91;100.00
49055;BME280;35405;52.344;14.530;2022-12-18T16:42:35;102641.94;;;-6.94;100.00
49055;BME280;35405;52.344;14.530;2022-12-18T16:45:01;102638.91;;;-6.89;100.00
49055;BME280;35405;52.344;14.530;2022-12-18T16:47:27;102630.84;;;-6.87;100.00
49055;BME280;35405;52.344;14.530;2022-12-18T16:49:52;102630.13;;;-6.90;100.00
49055;BME280;35405;52.344;14.530;2022-12-18T16:52:18;102628.56;;;-6.92;100.00
49055;BME280;35405;52.344;14.530;2022-12-18T16:54:43;102635.25;;;-6.98;100.00
49055;BME280;35405;52.344;14.530;2022-12-18T16:57:09;102624.13;;;-7.13;100.00
49055;BME280;35405;52.344;14.530;2022-12-18T16:59:37;102607.78;;;-7.18;100.00
49055;BME280;35405;52.344;14.530;2022-12-18T17:02:02;102604.09;;;-7.26;100.00
49055;BME280;35405;52.344;14.530;2022-12-18T17:04:28;102605.91;;;-7.27;100.00
49055;BME280;35405;52.344;14.530;2022-12-18T17:06:53;102606.44;;;-7.33;100.00
49055;BME280;35405;52.344;14.530;2022-12-18T17:09:19;102604.88;;;-7.36;100.00
49055;BME280;35405;52.344;14.530;2022-12-18T17:11:50;102608.50;;;-7.37;100.00
49055;BME280;35405;52.344;14.530;2022-12-18T17:14:18;102610.25;;;-7.37;100.00
49055;BME280;35405;52.344;14.530;2022-12-18T17:16:44;102599.22;;;-7.31;100.00
49055;BME280;35405;52.344;14.530;2022-12-18T17:19:10;102595.72;;;-7.31;100.00
49055;BME280;35405;52.344;14.530;2022-12-18T17:21:36;102590.16;;;-7.28;100.00
49055;BME280;35405;52.344;14.530;2022-12-18T17:24:01;102596.44;;;-7.29;100.00
49055;BME280;35405;52.344;14.530;2022-12-18T17:26:26;102590.56;;;-7.33;100.00
49055;BME280;35405;52.344;14.530;2022-12-18T17:28:52;102587.09;;;-7.33;100.00
49055;BME280;35405;52.344;14.530;2022-12-18T17:31:20;102575.91;;;-7.37;100.00
49055;BME280;35405;52.344;14.530;2022-12-18T17:33:46;102583.72;;;-7.36;100.00
49055;BME280;35405;52.344;14.530;2022-12-18T17:36:12;102581.09;;;-7.36;100.00
49055;BME280;35405;52.344;14.530;2022-12-18T17:38:37;102577.13;;;-7.41;100.00
49055;BME280;35405;52.344;14.530;2022-12-18T17:41:06;102570.31;;;-7.44;100.00
49055;BME280;35405;52.344;14.530;2022-12-18T17:43:32;102568.63;;;-7.45;100.00
49055;BME280;35405;52.344;14.530;2022-12-18T17:46:03;102571.53;;;-7.48;100.00
49055;BME280;35405;52.344;14.530;2022-12-18T17:48:29;102564.56;;;-7.49;100.00
49055;BME280;35405;52.344;14.530;2022-12-18T17:50:54;102559.88;;;-7.45;100.00
49055;BME280;35405;52.344;14.530;2022-12-18T17:53:20;102569.59;;;-7.46;100.00
49055;BME280;35405;52.344;14.530;2022-12-18T17:55:54;102558.56;;;-7.51;100.00
49055;BME280;35405;52.344;14.530;2022-12-18T17:58:20;102566.09;;;-7.46;100.00
49055;BME280;35405;52.344;14.530;2022-12-18T18:00:45;102563.34;;;-7.45;100.00
49055;BME280;35405;52.344;14.530;2022-12-18T18:03:10;102567.53;;;-7.42;100.00
49055;BME280;35405;52.344;14.530;2022-12-18T18:05:35;102570.31;;;-7.44;100.00
49055;BME280;35405;52.344;14.530;2022-12-18T18:08:01;102571.28;;;-7.45;100.00
49055;BME280;35405;52.344;14.530;2022-12-18T18:10:26;102569.47;;;-7.44;100.00
49055;BME280;35405;52.344;14.530;2022-12-18T18:12:51;102572.00;;;-7.43;100.00
49055;BME280;35405;52.344;14.530;2022-12-18T18:15:35;102570.63;;;-7.37;100.00
49055;BME280;35405;52.344;14.530;2022-12-18T18:18:01;102568.97;;;-7.38;100.00
49055;BME280;35405;52.344;14.530;2022-12-18T18:20:26;102573.53;;;-7.40;100.00
49055;BME280;35405;52.344;14.530;2022-12-18T18:22:54;102578.81;;;-7.40;100.00
49055;BME280;35405;52.344;14.530;2022-12-18T18:25:19;102578.69;;;-7.39;100.00
49055;BME280;35405;52.344;14.530;2022-12-18T18:27:47;102583.16;;;-7.39;100.00
49055;BME280;35405;52.344;14.530;2022-12-18T18:30:13;102588.44;;;-7.39;100.00
49055;BME280;35405;52.344;14.530;2022-12-18T18:32:39;102588.69;;;-7.42;100.00
49055;BME280;35405;52.344;14.530;2022-12-18T18:35:05;102577.53;;;-7.46;100.00
49055;BME280;35405;52.344;14.530;2022-12-18T18:37:31;102589.88;;;-7.46;100.00
49055;BME280;35405;52.344;14.530;2022-12-18T18:39:56;102581.13;;;-7.47;100.00
49055;BME280;35405;52.344;14.530;2022-12-18T18:42:28;102588.22;;;-7.47;100.00
49055;BME280;35405;52.344;14.530;2022-12-18T18:44:54;102588.34;;;-7.49;100.00
49055;BME280;35405;52.344;14.530;2022-12-18T18:47:19;102584.84;;;-7.49;100.00
49055;BME280;35405;52.344;14.530;2022-12-18T18:49:45;102584.75;;;-7.48;100.00
49055;BME280;35405;52.344;14.530;2022-12-18T18:52:10;102589.56;;;-7.53;100.00
49055;BME280;35405;52.344;14.530;2022-12-18T18:54:37;102589.56;;;-7.53;100.00
49055;BME280;35405;52.344;14.530;2022-12-18T18:57:05;102579.72;;;-7.51;100.00
49055;BME280;35405;52.344;14.530;2022-12-18T18:59:31;102577.19;;;-7.52;100.00
49055;BME280;35405;52.344;14.530;2022-12-18T19:01:59;102570.81;;;-7.50;100.00
49055;BME280;35405;52.344;14.530;2022-12-18T19:04:31;102570.69;;;-7.48;100.00
49055;BME280;35405;52.344;14.530;2022-12-18T19:06:56;102559.72;;;-7.44;100.00
49055;BME280;35405;52.344;14.530;2022-12-18T19:09:22;102564.06;;;-7.43;100.00
49055;BME280;35405;52.344;14.530;2022-12-18T19:11:47;102567.41;;;-7.41;100.00
49055;BME280;35405;52.344;14.530;2022-12-18T19:14:31;102553.94;;;-7.38;100.00
49055;BME280;35405;52.344;14.530;2022-12-18T19:16:56;102555.03;;;-7.40;100.00
49055;BME280;35405;52.344;14.530;2022-12-18T19:19:21;102542.78;;;-7.41;100.00
49055;BME280;35405;52.344;14.530;2022-12-18T19:21:47;102535.50;;;-7.49;100.00
49055;BME280;35405;52.344;14.530;2022-12-18T19:24:14;102525.78;;;-7.48;100.00
49055;BME280;35405;52.344;14.530;2022-12-18T19:26:39;102529.84;;;-7.44;100.00
49055;BME280;35405;52.344;14.530;2022-12-18T19:29:05;102528.28;;;-7.47;100.00
49055;BME280;35405;52.344;14.530;2022-12-18T19:31:31;102531.63;;;-7.45;100.00
49055;BME280;35405;52.344;14.530;2022-12-18T19:33:57;102531.38;;;-7.42;100.00
49055;BME280;35405;52.344;14.530;2022-12-18T19:36:24;102525.94;;;-7.40;100.00
49055;BME280;35405;52.344;14.530;2022-12-18T19:38:50;102523.72;;;-7.45;100.00
49055;BME280;35405;52.344;14.530;2022-12-18T19:41:15;102530.56;;;-7.42;100.00
49055;BME280;35405;52.344;14.530;2022-12-18T19:43:41;102530.41;;;-7.41;100.00
49055;BME280;35405;52.344;14.530;2022-12-18T19:46:08;102536.66;;;-7.42;100.00
49055;BME280;35405;52.344;14.530;2022-12-18T19:48:34;102525.25;;;-7.42;100.00
49055;BME280;35405;52.344;14.530;2022-12-18T19:53:31;102508.84;;;-7.46;100.00
49055;BME280;35405;52.344;14.530;2022-12-18T19:55:56;102509.66;;;-7.45;100.00
49055;BME280;35405;52.344;14.530;2022-12-18T19:58:21;102507.28;;;-7.48;100.00
49055;BME280;35405;52.344;14.530;2022-12-18T20:00:47;102500.13;;;-7.57;100.00
49055;BME280;35405;52.344;14.530;2022-12-18T20:03:12;102502.03;;;-7.60;100.00
49055;BME280;35405;52.344;14.530;2022-12-18T20:05:39;102494.84;;;-7.57;100.00
49055;BME280;35405;52.344;14.530;2022-12-18T20:08:04;102494.00;;;-7.58;100.00
49055;BME280;35405;52.344;14.530;2022-12-18T20:10:30;102505.25;;;-7.56;100.00
49055;BME280;35405;52.344;14.530;2022-12-18T20:12:56;102512.34;;;-7.56;100.00
49055;BME280;35405;52.344;14.530;2022-12-18T20:15:21;102520.28;;;-7.56;100.00
49055;BME280;35405;52.344;14.530;2022-12-18T20:17:46;102511.84;;;-7.50;100.00
49055;BME280;35405;52.344;14.530;2022-12-18T20:20:11;102516.16;;;-7.49;100.00
49055;BME280;35405;52.344;14.530;2022-12-18T20:22:37;102514.38;;;-7.49;100.00
49055;BME280;35405;52.344;14.530;2022-12-18T20:25:02;102507.38;;;-7.50;100.00
49055;BME280;35405;52.344;14.530;2022-12-18T20:27:27;102508.38;;;-7.51;100.00
49055;BME280;35405;52.344;14.530;2022-12-18T20:29:52;102508.94;;;-7.47;100.00
49055;BME280;35405;52.344;14.530;2022-12-18T20:32:17;102489.03;;;-7.51;100.00
49055;BME280;35405;52.344;14.530;2022-12-18T20:34:43;102488.53;;;-7.45;100.00
49055;BME280;35405;52.344;14.530;2022-12-18T20:37:08;102478.22;;;-7.48;100.00
49055;BME280;35405;52.344;14.530;2022-12-18T20:39:33;102479.88;;;-7.47;100.00
49055;BME280;35405;52.344;14.530;2022-12-18T20:41:58;102484.00;;;-7.54;100.00
49055;BME280;35405;52.344;14.530;2022-12-18T20:44:24;102494.06;;;-7.48;100.00
49055;BME280;35405;52.344;14.530;2022-12-18T20:46:50;102491.53;;;-7.50;100.00
49055;BME280;35405;52.344;14.530;2022-12-18T20:49:18;102488.78;;;-7.48;100.00
49055;BME280;35405;52.344;14.530;2022-12-18T20:51:43;102487.69;;;-7.46;100.00
49055;BME280;35405;52.344;14.530;2022-12-18T20:54:08;102489.94;;;-7.41;100.00
49055;BME280;35405;52.344;14.530;2022-12-18T20:56:33;102488.59;;;-7.36;100.00